sensor_id;sensor_type;location;lat;lon;timestamp;temperature;humidity
8099;DHT22;4092;47.876;9.372;2023-02-28T00:00:17;-3.20;99.90
8099;DHT22;4092;47.876;9.372;2023-02-28T00:02:45;-3.10;99.90
8099;DHT22;4092;47.876;9.372;2023-02-28T00:05:15;-3.20;99.90
8099;DHT22;4092;47.876;9.372;2023-02-28T00:07:43;-3.20;99.90
8099;DHT22;4092;47.876;9.372;2023-02-28T00:10:12;-3.20;99.90
8099;DHT22;4092;47.876;9.372;2023-02-28T00:12:40;-3.20;99.90
8099;DHT22;4092;47.876;9.372;2023-02-28T00:15:08;-3.20;99.90
8099;DHT22;4092;47.876;9.372;2023-02-28T00:17:36;-3.20;99.90
8099;DHT22;4092;47.876;9.372;2023-02-28T00:20:04;-3.20;99.90
8099;DHT22;4092;47.876;9.372;2023-02-28T00:22:35;-3.20;99.90
8099;DHT22;4092;47.876;9.372;2023-02-28T00:25:03;-3.20;99.90
8099;DHT22;4092;47.876;9.372;2023-02-28T00:27:30;-3.30;99.90
8099;DHT22;4092;47.876;9.372;2023-02-28T00:29:57;-3.30;99.90
8099;DHT22;4092;47.876;9.372;2023-02-28T00:32:24;-3.30;99.90
8099;DHT22;4092;47.876;9.372;2023-02-28T00:34:51;-3.30;99.90
8099;DHT22;4092;47.876;9.372;2023-02-28T00:37:18;-3.20;99.90
8099;DHT22;4092;47.876;9.372;2023-02-28T00:39:47;-3.30;99.90
8099;DHT22;4092;47.876;9.372;2023-02-28T00:42:14;-3.20;99.90
8099;DHT22;4092;47.876;9.372;2023-02-28T00:44:41;-3.20;99.90
8099;DHT22;4092;47.876;9.372;2023-02-28T00:47:08;-3.20;99.90
8099;DHT22;4092;47.876;9.372;2023-02-28T00:49:35;-3.20;99.90
8099;DHT22;4092;47.876;9.372;2023-02-28T00:52:02;-3.20;99.90
8099;DHT22;4092;47.876;9.372;2023-02-28T00:54:29;-3.20;99.90
8099;DHT22;4092;47.876;9.372;2023-02-28T00:56:58;-3.30;99.90
8099;DHT22;4092;47.876;9.372;2023-02-28T00:59:26;-3.30;99.90
8099;DHT22;4092;47.876;9.372;2023-02-28T01:01:52;-3.30;99.90
8099;DHT22;4092;47.876;9.372;2023-02-28T01:04:19;-3.30;99.90
8099;DHT22;4092;47.876;9.372;2023-02-28T01:06:46;-3.30;99.90
8099;DHT22;4092;47.876;9.372;2023-02-28T01:09:13;-3.30;99.90
8099;DHT22;4092;47.876;9.372;2023-02-28T01:11:41;-3.30;99.90
8099;DHT22;4092;47.876;9.372;2023-02-28T01:14:12;-3.30;99.90
8099;DHT22;4092;47.876;9.372;2023-02-28T01:16:39;-3.30;99.90
8099;DHT22;4092;47.876;9.372;2023-02-28T01:19:06;-3.30;99.90
8099;DHT22;4092;47.876;9.372;2023-02-28T01:21:34;-3.40;99.90
8099;DHT22;4092;47.876;9.372;2023-02-28T01:24:02;-3.30;99.90
8099;DHT22;4092;47.876;9.372;2023-02-28T01:26:29;-3.30;99.90
8099;DHT22;4092;47.876;9.372;2023-02-28T01:28:56;-3.30;99.90
8099;DHT22;4092;47.876;9.372;2023-02-28T01:31:25;-3.30;99.90
8099;DHT22;4092;47.876;9.372;2023-02-28T01:33:52;-3.30;99.90
8099;DHT22;4092;47.876;9.372;2023-02-28T01:36:20;-3.20;99.90
8099;DHT22;4092;47.876;9.372;2023-02-28T01:38:50;-3.30;99.90
8099;DHT22;4092;47.876;9.372;2023-02-28T01:41:20;-3.30;99.90
8099;DHT22;4092;47.876;9.372;2023-02-28T01:43:58;-3.30;99.90
8099;DHT22;4092;47.876;9.372;2023-02-28T01:46:30;-3.30;99.90
8099;DHT22;4092;47.876;9.372;2023-02-28T01:49:02;-3.30;99.90
8099;DHT22;4092;47.876;9.372;2023-02-28T01:51:36;-3.30;99.90
8099;DHT22;4092;47.876;9.372;2023-02-28T01:54:07;-3.30;99.90
8099;DHT22;4092;47.876;9.372;2023-02-28T01:56:42;-3.30;99.90
8099;DHT22;4092;47.876;9.372;2023-02-28T01:59:13;-3.30;99.90
8099;DHT22;4092;47.876;9.372;2023-02-28T02:01:43;-3.30;99.90
8099;DHT22;4092;47.876;9.372;2023-02-28T02:04:10;-3.30;99.90
8099;DHT22;4092;47.876;9.372;2023-02-28T02:06:40;-3.20;99.90
8099;DHT22;4092;47.876;9.372;2023-02-28T02:09:07;-3.20;99.90
8099;DHT22;4092;47.876;9.372;2023-02-28T02:11:35;-3.20;99.90
8099;DHT22;4092;47.876;9.372;2023-02-28T02:14:31;-3.20;99.90
8099;DHT22;4092;47.876;9.372;2023-02-28T02:17:18;-3.20;99.90
8099;DHT22;4092;47.876;9.372;2023-02-28T02:20:24;-3.20;99.90
8099;DHT22;4092;47.876;9.372;2023-02-28T02:23:15;-3.20;99.90
8099;DHT22;4092;47.876;9.372;2023-02-28T02:25:53;-3.20;99.90
8099;DHT22;4092;47.876;9.372;2023-02-28T02:31:48;-3.20;99.90
8099;DHT22;4092;47.876;9.372;2023-02-28T02:34:45;-3.30;99.90
8099;DHT22;4092;47.876;9.372;2023-02-28T02:37:21;-3.10;99.90
8099;DHT22;4092;47.876;9.372;2023-02-28T02:39:59;-3.20;99.90
8099;DHT22;4092;47.876;9.372;2023-02-28T02:42:36;-3.20;99.90
8099;DHT22;4092;47.876;9.372;2023-02-28T02:45:09;-3.20;99.90
8099;DHT22;4092;47.876;9.372;2023-02-28T02:47:37;-3.20;99.90
8099;DHT22;4092;47.876;9.372;2023-02-28T02:50:11;-3.20;99.90
8099;DHT22;4092;47.876;9.372;2023-02-28T02:52:42;-3.20;99.90
8099;DHT22;4092;47.876;9.372;2023-02-28T02:55:13;-3.20;99.90
8099;DHT22;4092;47.876;9.372;2023-02-28T02:57:46;-3.20;99.90
8099;DHT22;4092;47.876;9.372;2023-02-28T03:00:16;-3.20;99.90
8099;DHT22;4092;47.876;9.372;2023-02-28T03:02:45;-3.20;99.90
8099;DHT22;4092;47.876;9.372;2023-02-28T03:05:19;-3.20;99.90
8099;DHT22;4092;47.876;9.372;2023-02-28T03:07:47;-3.20;99.90
8099;DHT22;4092;47.876;9.372;2023-02-28T03:10:32;-3.20;99.90
8099;DHT22;4092;47.876;9.372;2023-02-28T03:16:01;-3.20;99.90
8099;DHT22;4092;47.876;9.372;2023-02-28T03:18:38;-3.20;99.90
8099;DHT22;4092;47.876;9.372;2023-02-28T03:21:16;-3.20;99.90
8099;DHT22;4092;47.876;9.372;2023-02-28T03:23:53;-3.20;99.90
8099;DHT22;4092;47.876;9.372;2023-02-28T03:26:23;-3.10;99.90
8099;DHT22;4092;47.876;9.372;2023-02-28T03:28:58;-3.20;99.90
8099;DHT22;4092;47.876;9.372;2023-02-28T03:31:31;-3.20;99.90
8099;DHT22;4092;47.876;9.372;2023-02-28T03:34:04;-3.20;99.90
8099;DHT22;4092;47.876;9.372;2023-02-28T03:36:37;-3.20;99.90
8099;DHT22;4092;47.876;9.372;2023-02-28T03:39:11;-3.20;99.90
8099;DHT22;4092;47.876;9.372;2023-02-28T03:41:44;-3.20;99.90
8099;DHT22;4092;47.876;9.372;2023-02-28T03:44:19;-3.30;99.90
8099;DHT22;4092;47.876;9.372;2023-02-28T03:46:52;-3.20;99.90
8099;DHT22;4092;47.876;9.372;2023-02-28T03:49:25;-3.20;99.90
8099;DHT22;4092;47.876;9.372;2023-02-28T03:51:56;-3.20;99.90
8099;DHT22;4092;47.876;9.372;2023-02-28T03:54:28;-3.20;99.90
8099;DHT22;4092;47.876;9.372;2023-02-28T03:57:02;-3.20;99.90
8099;DHT22;4092;47.876;9.372;2023-02-28T03:59:34;-3.20;99.90
8099;DHT22;4092;47.876;9.372;2023-02-28T04:02:02;-3.10;99.90
8099;DHT22;4092;47.876;9.372;2023-02-28T04:04:29;-3.10;99.90
8099;DHT22;4092;47.876;9.372;2023-02-28T04:07:04;-3.10;99.90
8099;DHT22;4092;47.876;9.372;2023-02-28T04:09:32;-3.10;99.90
8099;DHT22;4092;47.876;9.372;2023-02-28T04:11:59;-3.10;99.90
8099;DHT22;4092;47.876;9.372;2023-02-28T04:14:26;-3.10;99.90
8099;DHT22;4092;47.876;9.372;2023-02-28T04:16:53;-3.20;99.90
8099;DHT22;4092;47.876;9.372;2023-02-28T04:19:20;-3.20;99.90
8099;DHT22;4092;47.876;9.372;2023-02-28T04:21:49;-3.30;99.90
8099;DHT22;4092;47.876;9.372;2023-02-28T04:24:19;-3.20;99.90
8099;DHT22;4092;47.876;9.372;2023-02-28T04:26:48;-3.20;99.90
8099;DHT22;4092;47.876;9.372;2023-02-28T04:29:19;-3.20;99.90
8099;DHT22;4092;47.876;9.372;2023-02-28T04:31:47;-3.10;99.90
8099;DHT22;4092;47.876;9.372;2023-02-28T04:34:14;-3.10;99.90
8099;DHT22;4092;47.876;9.372;2023-02-28T04:36:41;-3.20;99.90
8099;DHT22;4092;47.876;9.372;2023-02-28T04:39:08;-3.20;99.90
8099;DHT22;4092;47.876;9.372;2023-02-28T04:41:37;-3.20;99.90
8099;DHT22;4092;47.876;9.372;2023-02-28T04:44:04;-3.20;99.90
8099;DHT22;4092;47.876;9.372;2023-02-28T04:46:31;-3.20;99.90
8099;DHT22;4092;47.876;9.372;2023-02-28T04:48:58;-3.20;99.90
8099;DHT22;4092;47.876;9.372;2023-02-28T04:51:25;-3.20;99.90
8099;DHT22;4092;47.876;9.372;2023-02-28T04:53:52;-3.10;99.90
8099;DHT22;4092;47.876;9.372;2023-02-28T04:56:20;-3.20;99.90
8099;DHT22;4092;47.876;9.372;2023-02-28T04:58:49;-3.30;99.90
8099;DHT22;4092;47.876;9.372;2023-02-28T05:01:21;-3.30;99.90
8099;DHT22;4092;47.876;9.372;2023-02-28T05:03:49;-3.30;99.90
8099;DHT22;4092;47.876;9.372;2023-02-28T05:06:17;-3.30;99.90
8099;DHT22;4092;47.876;9.372;2023-02-28T05:08:44;-3.30;99.90
8099;DHT22;4092;47.876;9.372;2023-02-28T05:11:18;-3.30;99.90
8099;DHT22;4092;47.876;9.372;2023-02-28T05:13:48;-3.30;99.90
8099;DHT22;4092;47.876;9.372;2023-02-28T05:16:15;-3.30;99.90
8099;DHT22;4092;47.876;9.372;2023-02-28T05:18:42;-3.30;99.90
8099;DHT22;4092;47.876;9.372;2023-02-28T05:21:24;-3.30;99.90
8099;DHT22;4092;47.876;9.372;2023-02-28T05:23:51;-3.30;99.90
8099;DHT22;4092;47.876;9.372;2023-02-28T05:26:19;-3.30;99.90
8099;DHT22;4092;47.876;9.372;2023-02-28T05:28:47;-3.20;99.90
8099;DHT22;4092;47.876;9.372;2023-02-28T05:31:14;-3.20;99.90
8099;DHT22;4092;47.876;9.372;2023-02-28T05:33:42;-3.30;99.90
8099;DHT22;4092;47.876;9.372;2023-02-28T05:36:09;-3.20;99.90
8099;DHT22;4092;47.876;9.372;2023-02-28T05:38:36;-3.30;99.90
8099;DHT22;4092;47.876;9.372;2023-02-28T05:41:06;-3.30;99.90
8099;DHT22;4092;47.876;9.372;2023-02-28T05:43:33;-3.30;99.90
8099;DHT22;4092;47.876;9.372;2023-02-28T05:46:04;-3.30;99.90
8099;DHT22;4092;47.876;9.372;2023-02-28T05:48:32;-3.30;99.90
8099;DHT22;4092;47.876;9.372;2023-02-28T05:50:59;-3.30;99.90
8099;DHT22;4092;47.876;9.372;2023-02-28T05:53:26;-3.40;99.90
8099;DHT22;4092;47.876;9.372;2023-02-28T05:55:53;-3.40;99.90
8099;DHT22;4092;47.876;9.372;2023-02-28T05:58:20;-3.40;99.90
8099;DHT22;4092;47.876;9.372;2023-02-28T06:00:47;-3.40;99.90
8099;DHT22;4092;47.876;9.372;2023-02-28T06:03:16;-3.40;99.90
8099;DHT22;4092;47.876;9.372;2023-02-28T06:05:44;-3.40;99.90
8099;DHT22;4092;47.876;9.372;2023-02-28T06:08:11;-3.40;99.90
8099;DHT22;4092;47.876;9.372;2023-02-28T06:10:38;-3.30;99.90
8099;DHT22;4092;47.876;9.372;2023-02-28T06:13:05;-3.20;99.90
8099;DHT22;4092;47.876;9.372;2023-02-28T06:15:33;-3.20;99.90
8099;DHT22;4092;47.876;9.372;2023-02-28T06:18:00;-3.30;99.90
8099;DHT22;4092;47.876;9.372;2023-02-28T06:20:28;-3.30;99.90
8099;DHT22;4092;47.876;9.372;2023-02-28T06:22:56;-3.20;99.90
8099;DHT22;4092;47.876;9.372;2023-02-28T06:25:24;-3.30;99.90
8099;DHT22;4092;47.876;9.372;2023-02-28T06:27:51;-3.20;99.90
8099;DHT22;4092;47.876;9.372;2023-02-28T06:30:18;-3.30;99.90
8099;DHT22;4092;47.876;9.372;2023-02-28T06:32:52;-3.40;99.90
8099;DHT22;4092;47.876;9.372;2023-02-28T06:35:20;-3.40;99.90
8099;DHT22;4092;47.876;9.372;2023-02-28T06:37:48;-3.40;99.90
8099;DHT22;4092;47.876;9.372;2023-02-28T06:40:15;-3.30;99.90
8099;DHT22;4092;47.876;9.372;2023-02-28T06:42:42;-3.30;99.90
8099;DHT22;4092;47.876;9.372;2023-02-28T06:45:10;-3.40;99.90
8099;DHT22;4092;47.876;9.372;2023-02-28T06:47:38;-3.30;99.90
8099;DHT22;4092;47.876;9.372;2023-02-28T06:50:06;-3.30;99.90
8099;DHT22;4092;47.876;9.372;2023-02-28T06:52:33;-3.30;99.90
8099;DHT22;4092;47.876;9.372;2023-02-28T06:55:05;-3.40;99.90
8099;DHT22;4092;47.876;9.372;2023-02-28T06:57:34;-3.30;99.90
8099;DHT22;4092;47.876;9.372;2023-02-28T07:00:04;-3.30;99.90
8099;DHT22;4092;47.876;9.372;2023-02-28T07:02:33;-3.30;99.90
8099;DHT22;4092;47.876;9.372;2023-02-28T07:05:00;-3.40;99.90
8099;DHT22;4092;47.876;9.372;2023-02-28T07:07:27;-3.40;99.90
8099;DHT22;4092;47.876;9.372;2023-02-28T07:09:54;-3.40;99.90
8099;DHT22;4092;47.876;9.372;2023-02-28T07:12:22;-3.40;99.90
8099;DHT22;4092;47.876;9.372;2023-02-28T07:14:49;-3.30;99.90
8099;DHT22;4092;47.876;9.372;2023-02-28T07:17:16;-3.30;99.90
8099;DHT22;4092;47.876;9.372;2023-02-28T07:19:43;-3.40;99.90
8099;DHT22;4092;47.876;9.372;2023-02-28T07:22:10;-3.40;99.90
8099;DHT22;4092;47.876;9.372;2023-02-28T07:24:37;-3.40;99.90
8099;DHT22;4092;47.876;9.372;2023-02-28T07:27:04;-3.30;99.90
8099;DHT22;4092;47.876;9.372;2023-02-28T07:29:33;-3.30;99.90
8099;DHT22;4092;47.876;9.372;2023-02-28T07:32:00;-3.30;99.90
8099;DHT22;4092;47.876;9.372;2023-02-28T07:34:27;-3.30;99.90
8099;DHT22;4092;47.876;9.372;2023-02-28T07:36:54;-3.30;99.90
8099;DHT22;4092;47.876;9.372;2023-02-28T07:39:22;-3.20;99.90
8099;DHT22;4092;47.876;9.372;2023-02-28T07:41:49;-3.40;99.90
8099;DHT22;4092;47.876;9.372;2023-02-28T07:44:16;-3.30;99.90
8099;DHT22;4092;47.876;9.372;2023-02-28T07:46:44;-3.30;99.90
8099;DHT22;4092;47.876;9.372;2023-02-28T07:49:11;-3.30;99.90
8099;DHT22;4092;47.876;9.372;2023-02-28T07:51:38;-3.30;99.90
8099;DHT22;4092;47.876;9.372;2023-02-28T07:54:05;-3.20;99.90
8099;DHT22;4092;47.876;9.372;2023-02-28T07:56:32;-3.10;99.90
8099;DHT22;4092;47.876;9.372;2023-02-28T07:58:59;-3.10;99.90
8099;DHT22;4092;47.876;9.372;2023-02-28T08:01:27;-3.10;99.90
8099;DHT22;4092;47.876;9.372;2023-02-28T08:03:55;-3.20;99.90
8099;DHT22;4092;47.876;9.372;2023-02-28T08:06:23;-3.20;99.90
8099;DHT22;4092;47.876;9.372;2023-02-28T08:08:52;-3.20;99.90
8099;DHT22;4092;47.876;9.372;2023-02-28T08:11:19;-3.10;99.90
8099;DHT22;4092;47.876;9.372;2023-02-28T08:13:46;-3.00;99.90
8099;DHT22;4092;47.876;9.372;2023-02-28T08:16:14;-3.00;99.90
8099;DHT22;4092;47.876;9.372;2023-02-28T08:18:46;-3.00;99.90
8099;DHT22;4092;47.876;9.372;2023-02-28T08:21:15;-2.90;99.90
8099;DHT22;4092;47.876;9.372;2023-02-28T08:23:42;-2.90;99.90
8099;DHT22;4092;47.876;9.372;2023-02-28T08:26:09;-2.90;99.90
8099;DHT22;4092;47.876;9.372;2023-02-28T08:28:36;-2.90;99.90
8099;DHT22;4092;47.876;9.372;2023-02-28T08:31:08;-2.90;99.90
8099;DHT22;4092;47.876;9.372;2023-02-28T08:33:35;-2.90;99.90
8099;DHT22;4092;47.876;9.372;2023-02-28T08:36:03;-2.80;99.90
8099;DHT22;4092;47.876;9.372;2023-02-28T08:38:31;-2.80;99.90
8099;DHT22;4092;47.876;9.372;2023-02-28T08:40:59;-2.70;99.90
8099;DHT22;4092;47.876;9.372;2023-02-28T08:43:26;-2.70;99.90
8099;DHT22;4092;47.876;9.372;2023-02-28T08:45:53;-2.60;99.90
8099;DHT22;4092;47.876;9.372;2023-02-28T08:48:22;-2.70;99.90
8099;DHT22;4092;47.876;9.372;2023-02-28T08:50:55;-2.80;99.90
8099;DHT22;4092;47.876;9.372;2023-02-28T08:53:22;-2.80;99.90
8099;DHT22;4092;47.876;9.372;2023-02-28T08:55:57;-2.80;99.90
8099;DHT22;4092;47.876;9.372;2023-02-28T08:58:24;-2.80;99.90
8099;DHT22;4092;47.876;9.372;2023-02-28T09:00:52;-2.80;99.90
8099;DHT22;4092;47.876;9.372;2023-02-28T09:03:20;-2.70;99.90
8099;DHT22;4092;47.876;9.372;2023-02-28T09:05:59;-2.80;99.90
8099;DHT22;4092;47.876;9.372;2023-02-28T09:08:27;-2.70;99.90
8099;DHT22;4092;47.876;9.372;2023-02-28T09:10:57;-2.70;99.90
8099;DHT22;4092;47.876;9.372;2023-02-28T09:13:25;-2.60;99.90
8099;DHT22;4092;47.876;9.372;2023-02-28T09:15:52;-2.60;99.90
8099;DHT22;4092;47.876;9.372;2023-02-28T09:18:20;-2.50;99.90
8099;DHT22;4092;47.876;9.372;2023-02-28T09:20:47;-2.50;99.90
8099;DHT22;4092;47.876;9.372;2023-02-28T09:23:14;-2.60;99.90
8099;DHT22;4092;47.876;9.372;2023-02-28T09:25:46;-2.50;99.90
8099;DHT22;4092;47.876;9.372;2023-02-28T09:28:14;-2.50;99.90
8099;DHT22;4092;47.876;9.372;2023-02-28T09:30:43;-2.30;99.90
8099;DHT22;4092;47.876;9.372;2023-02-28T09:33:11;-2.40;99.90
8099;DHT22;4092;47.876;9.372;2023-02-28T09:35:38;-2.30;99.90
8099;DHT22;4092;47.876;9.372;2023-02-28T09:38:05;-2.40;99.90
8099;DHT22;4092;47.876;9.372;2023-02-28T09:40:36;-2.40;99.90
8099;DHT22;4092;47.876;9.372;2023-02-28T09:43:04;-2.40;99.90
8099;DHT22;4092;47.876;9.372;2023-02-28T09:45:37;-2.40;99.90
8099;DHT22;4092;47.876;9.372;2023-02-28T09:48:16;-2.40;99.90
8099;DHT22;4092;47.876;9.372;2023-02-28T09:50:47;-2.30;99.90
8099;DHT22;4092;47.876;9.372;2023-02-28T09:53:19;-2.30;99.90
8099;DHT22;4092;47.876;9.372;2023-02-28T09:55:51;-2.20;99.90
8099;DHT22;4092;47.876;9.372;2023-02-28T09:58:23;-2.00;99.90
8099;DHT22;4092;47.876;9.372;2023-02-28T10:00:59;-2.10;99.90
8099;DHT22;4092;47.876;9.372;2023-02-28T10:03:33;-2.10;99.90
8099;DHT22;4092;47.876;9.372;2023-02-28T10:06:07;-2.10;99.90
8099;DHT22;4092;47.876;9.372;2023-02-28T10:08:38;-2.00;99.90
8099;DHT22;4092;47.876;9.372;2023-02-28T10:11:13;-2.00;99.90
8099;DHT22;4092;47.876;9.372;2023-02-28T10:13:51;-2.00;99.90
8099;DHT22;4092;47.876;9.372;2023-02-28T10:16:25;-1.90;99.90
8099;DHT22;4092;47.876;9.372;2023-02-28T10:18:58;-1.80;99.90
8099;DHT22;4092;47.876;9.372;2023-02-28T10:21:31;-1.90;99.90
8099;DHT22;4092;47.876;9.372;2023-02-28T10:24:05;-1.90;99.90
8099;DHT22;4092;47.876;9.372;2023-02-28T10:26:38;-1.80;99.90
8099;DHT22;4092;47.876;9.372;2023-02-28T10:29:07;-1.70;99.90
8099;DHT22;4092;47.876;9.372;2023-02-28T10:31:36;-1.70;99.90
8099;DHT22;4092;47.876;9.372;2023-02-28T10:34:03;-1.70;99.90
8099;DHT22;4092;47.876;9.372;2023-02-28T10:36:32;-1.70;99.90
8099;DHT22;4092;47.876;9.372;2023-02-28T10:38:59;-1.50;99.90
8099;DHT22;4092;47.876;9.372;2023-02-28T10:41:28;-1.60;99.90
8099;DHT22;4092;47.876;9.372;2023-02-28T10:44:15;-1.50;99.90
8099;DHT22;4092;47.876;9.372;2023-02-28T10:46:46;-1.40;99.90
8099;DHT22;4092;47.876;9.372;2023-02-28T10:49:19;-1.40;99.90
8099;DHT22;4092;47.876;9.372;2023-02-28T10:51:47;-1.40;99.90
8099;DHT22;4092;47.876;9.372;2023-02-28T10:54:16;-1.30;99.90
8099;DHT22;4092;47.876;9.372;2023-02-28T10:56:43;-1.30;99.90
8099;DHT22;4092;47.876;9.372;2023-02-28T10:59:27;-1.40;99.90
8099;DHT22;4092;47.876;9.372;2023-02-28T11:01:56;-1.20;99.90
8099;DHT22;4092;47.876;9.372;2023-02-28T11:04:35;-1.10;99.90
8099;DHT22;4092;47.876;9.372;2023-02-28T11:07:09;-1.00;99.90
8099;DHT22;4092;47.876;9.372;2023-02-28T11:09:46;-1.00;99.90
8099;DHT22;4092;47.876;9.372;2023-02-28T11:12:21;-1.00;99.90
8099;DHT22;4092;47.876;9.372;2023-02-28T11:14:49;-0.90;99.90
8099;DHT22;4092;47.876;9.372;2023-02-28T11:17:22;-1.00;99.90
8099;DHT22;4092;47.876;9.372;2023-02-28T11:19:53;-1.10;99.90
8099;DHT22;4092;47.876;9.372;2023-02-28T11:22:24;-1.20;99.90
8099;DHT22;4092;47.876;9.372;2023-02-28T11:24:56;-1.00;99.90
8099;DHT22;4092;47.876;9.372;2023-02-28T11:27:46;-1.00;99.90
8099;DHT22;4092;47.876;9.372;2023-02-28T11:30:26;-1.00;99.90
8099;DHT22;4092;47.876;9.372;2023-02-28T11:32:54;-1.00;99.90
8099;DHT22;4092;47.876;9.372;2023-02-28T11:35:26;-1.00;99.90
8099;DHT22;4092;47.876;9.372;2023-02-28T11:37:53;-0.90;99.90
8099;DHT22;4092;47.876;9.372;2023-02-28T11:40:24;-0.90;99.90
8099;DHT22;4092;47.876;9.372;2023-02-28T11:43:04;-0.90;99.90
8099;DHT22;4092;47.876;9.372;2023-02-28T11:45:44;-0.90;99.90
8099;DHT22;4092;47.876;9.372;2023-02-28T11:48:19;-0.90;99.90
8099;DHT22;4092;47.876;9.372;2023-02-28T11:50:55;-0.80;99.90
8099;DHT22;4092;47.876;9.372;2023-02-28T11:56:24;-0.70;99.90
8099;DHT22;4092;47.876;9.372;2023-02-28T11:59:01;-0.70;99.90
8099;DHT22;4092;47.876;9.372;2023-02-28T12:01:38;-0.80;99.90
8099;DHT22;4092;47.876;9.372;2023-02-28T12:04:21;-0.70;99.90
8099;DHT22;4092;47.876;9.372;2023-02-28T12:06:57;-0.60;99.90
8099;DHT22;4092;47.876;9.372;2023-02-28T12:09:41;-0.60;99.90
8099;DHT22;4092;47.876;9.372;2023-02-28T12:12:22;-0.70;99.90
8099;DHT22;4092;47.876;9.372;2023-02-28T12:15:05;-0.80;99.90
8099;DHT22;4092;47.876;9.372;2023-02-28T12:17:50;-0.80;99.90
8099;DHT22;4092;47.876;9.372;2023-02-28T12:20:25;-0.90;99.90
8099;DHT22;4092;47.876;9.372;2023-02-28T12:23:04;-0.90;99.90
8099;DHT22;4092;47.876;9.372;2023-02-28T12:25:50;-0.90;99.90
8099;DHT22;4092;47.876;9.372;2023-02-28T12:28:24;-0.90;99.90
8099;DHT22;4092;47.876;9.372;2023-02-28T12:30:56;-0.90;99.90
8099;DHT22;4092;47.876;9.372;2023-02-28T12:33:29;-1.00;99.90
8099;DHT22;4092;47.876;9.372;2023-02-28T12:36:04;-0.90;99.90
8099;DHT22;4092;47.876;9.372;2023-02-28T12:38:37;-0.90;99.90
8099;DHT22;4092;47.876;9.372;2023-02-28T12:41:10;-0.80;99.90
8099;DHT22;4092;47.876;9.372;2023-02-28T12:43:42;-0.80;99.90
8099;DHT22;4092;47.876;9.372;2023-02-28T12:46:13;-0.90;99.90
8099;DHT22;4092;47.876;9.372;2023-02-28T12:48:46;-1.00;99.90
8099;DHT22;4092;47.876;9.372;2023-02-28T12:51:16;-1.00;99.90
8099;DHT22;4092;47.876;9.372;2023-02-28T12:53:58;-1.00;99.90
8099;DHT22;4092;47.876;9.372;2023-02-28T12:56:34;-1.00;99.90
8099;DHT22;4092;47.876;9.372;2023-02-28T12:59:11;-0.90;99.90
8099;DHT22;4092;47.876;9.372;2023-02-28T13:05:06;-0.80;99.90
8099;DHT22;4092;47.876;9.372;2023-02-28T13:07:58;-0.70;99.90
8099;DHT22;4092;47.876;9.372;2023-02-28T13:10:49;-0.70;99.90
8099;DHT22;4092;47.876;9.372;2023-02-28T13:13:21;-0.70;99.90
8099;DHT22;4092;47.876;9.372;2023-02-28T13:16:00;-0.70;99.90
8099;DHT22;4092;47.876;9.372;2023-02-28T13:18:30;-0.70;99.90
8099;DHT22;4092;47.876;9.372;2023-02-28T13:20:59;-0.60;99.90
8099;DHT22;4092;47.876;9.372;2023-02-28T13:23:58;-0.60;99.90
8099;DHT22;4092;47.876;9.372;2023-02-28T13:29:38;-0.70;99.90
8099;DHT22;4092;47.876;9.372;2023-02-28T13:32:28;-0.70;99.90
8099;DHT22;4092;47.876;9.372;2023-02-28T13:35:15;-0.70;99.90
8099;DHT22;4092;47.876;9.372;2023-02-28T13:38:22;-0.70;99.90
8099;DHT22;4092;47.876;9.372;2023-02-28T13:40:51;-0.70;99.90
8099;DHT22;4092;47.876;9.372;2023-02-28T13:43:18;-0.60;99.90
8099;DHT22;4092;47.876;9.372;2023-02-28T13:46:11;-0.70;99.90
8099;DHT22;4092;47.876;9.372;2023-02-28T13:48:38;-0.50;99.90
8099;DHT22;4092;47.876;9.372;2023-02-28T13:51:33;0.20;99.90
8099;DHT22;4092;47.876;9.372;2023-02-28T13:54:16;1.00;99.90
8099;DHT22;4092;47.876;9.372;2023-02-28T13:56:50;1.90;99.90
8099;DHT22;4092;47.876;9.372;2023-02-28T13:59:25;2.70;99.90
8099;DHT22;4092;47.876;9.372;2023-02-28T14:02:03;3.30;99.90
8099;DHT22;4092;47.876;9.372;2023-02-28T14:04:59;3.40;99.90
8099;DHT22;4092;47.876;9.372;2023-02-28T14:07:30;3.20;99.90
8099;DHT22;4092;47.876;9.372;2023-02-28T14:10:02;3.40;99.90
8099;DHT22;4092;47.876;9.372;2023-02-28T14:12:58;3.20;99.90
8099;DHT22;4092;47.876;9.372;2023-02-28T14:15:41;3.20;99.90
8099;DHT22;4092;47.876;9.372;2023-02-28T14:18:22;3.00;99.90
8099;DHT22;4092;47.876;9.372;2023-02-28T14:20:57;3.20;99.90
8099;DHT22;4092;47.876;9.372;2023-02-28T14:26:33;3.30;99.90
8099;DHT22;4092;47.876;9.372;2023-02-28T14:29:18;3.50;99.90
8099;DHT22;4092;47.876;9.372;2023-02-28T14:31:58;3.60;99.90
8099;DHT22;4092;47.876;9.372;2023-02-28T14:34:37;3.50;99.90
8099;DHT22;4092;47.876;9.372;2023-02-28T14:37:13;3.40;99.90
8099;DHT22;4092;47.876;9.372;2023-02-28T14:39:42;3.40;99.90
8099;DHT22;4092;47.876;9.372;2023-02-28T14:42:27;3.40;99.90
8099;DHT22;4092;47.876;9.372;2023-02-28T14:44:56;3.40;99.90
8099;DHT22;4092;47.876;9.372;2023-02-28T14:47:25;3.80;99.90
8099;DHT22;4092;47.876;9.372;2023-02-28T14:49:53;3.70;99.90
8099;DHT22;4092;47.876;9.372;2023-02-28T14:52:23;3.90;99.90
8099;DHT22;4092;47.876;9.372;2023-02-28T14:54:53;4.00;99.90
8099;DHT22;4092;47.876;9.372;2023-02-28T14:57:22;4.20;99.90
8099;DHT22;4092;47.876;9.372;2023-02-28T15:00:03;4.30;99.90
8099;DHT22;4092;47.876;9.372;2023-02-28T15:02:36;4.00;99.90
8099;DHT22;4092;47.876;9.372;2023-02-28T15:05:19;4.40;99.90
8099;DHT22;4092;47.876;9.372;2023-02-28T15:08:00;4.70;99.90
8099;DHT22;4092;47.876;9.372;2023-02-28T15:10:27;4.90;99.90
8099;DHT22;4092;47.876;9.372;2023-02-28T15:12:57;5.10;99.90
8099;DHT22;4092;47.876;9.372;2023-02-28T15:15:30;5.40;99.90
8099;DHT22;4092;47.876;9.372;2023-02-28T15:18:05;5.30;99.90
8099;DHT22;4092;47.876;9.372;2023-02-28T15:20:33;5.40;99.90
8099;DHT22;4092;47.876;9.372;2023-02-28T15:23:02;5.50;99.90
8099;DHT22;4092;47.876;9.372;2023-02-28T15:25:29;5.30;99.90
8099;DHT22;4092;47.876;9.372;2023-02-28T15:27:57;4.90;99.90
8099;DHT22;4092;47.876;9.372;2023-02-28T15:30:27;5.00;99.90
8099;DHT22;4092;47.876;9.372;2023-02-28T15:33:18;4.80;99.90
8099;DHT22;4092;47.876;9.372;2023-02-28T15:35:46;4.80;99.90
8099;DHT22;4092;47.876;9.372;2023-02-28T15:38:17;4.90;99.90
8099;DHT22;4092;47.876;9.372;2023-02-28T15:40:45;5.30;99.90
8099;DHT22;4092;47.876;9.372;2023-02-28T15:43:23;5.30;99.90
8099;DHT22;4092;47.876;9.372;2023-02-28T15:45:56;5.10;99.90
8099;DHT22;4092;47.876;9.372;2023-02-28T15:48:26;4.80;99.90
8099;DHT22;4092;47.876;9.372;2023-02-28T15:50:56;4.90;99.90
8099;DHT22;4092;47.876;9.372;2023-02-28T15:53:27;4.70;99.90
8099;DHT22;4092;47.876;9.372;2023-02-28T15:55:58;4.60;99.90
8099;DHT22;4092;47.876;9.372;2023-02-28T15:58:26;4.40;99.90
8099;DHT22;4092;47.876;9.372;2023-02-28T16:01:08;4.40;99.90
8099;DHT22;4092;47.876;9.372;2023-02-28T16:03:46;4.90;99.90
8099;DHT22;4092;47.876;9.372;2023-02-28T16:06:37;5.40;99.90
8099;DHT22;4092;47.876;9.372;2023-02-28T16:09:08;5.60;99.90
8099;DHT22;4092;47.876;9.372;2023-02-28T16:11:38;5.70;99.90
8099;DHT22;4092;47.876;9.372;2023-02-28T16:14:09;5.70;99.90
8099;DHT22;4092;47.876;9.372;2023-02-28T16:16:43;5.60;99.90
8099;DHT22;4092;47.876;9.372;2023-02-28T16:19:11;5.40;99.90
8099;DHT22;4092;47.876;9.372;2023-02-28T16:21:38;5.00;99.90
8099;DHT22;4092;47.876;9.372;2023-02-28T16:24:05;4.60;99.90
8099;DHT22;4092;47.876;9.372;2023-02-28T16:26:32;3.80;99.90
8099;DHT22;4092;47.876;9.372;2023-02-28T16:29:01;3.30;99.90
8099;DHT22;4092;47.876;9.372;2023-02-28T16:31:28;2.70;99.90
8099;DHT22;4092;47.876;9.372;2023-02-28T16:33:57;2.00;99.90
8099;DHT22;4092;47.876;9.372;2023-02-28T16:36:24;1.70;99.90
8099;DHT22;4092;47.876;9.372;2023-02-28T16:38:51;1.50;99.90
8099;DHT22;4092;47.876;9.372;2023-02-28T16:41:21;1.10;99.90
8099;DHT22;4092;47.876;9.372;2023-02-28T16:43:50;1.00;99.90
8099;DHT22;4092;47.876;9.372;2023-02-28T16:46:18;0.80;99.90
8099;DHT22;4092;47.876;9.372;2023-02-28T16:48:47;0.70;99.90
8099;DHT22;4092;47.876;9.372;2023-02-28T16:51:18;0.60;99.90